sensor_id;sensor_type;location;lat;lon;timestamp;temperature;humidity
5940;DHT22;2995;-31.998;115.906;2024-03-23T00:52:27;23.80;99.90
5940;DHT22;2995;-31.998;115.906;2024-03-23T00:54:58;24.90;99.90
5940;DHT22;2995;-31.998;115.906;2024-03-23T00:57:28;26.70;99.90
5940;DHT22;2995;-31.998;115.906;2024-03-23T00:59:59;26.30;99.90
5940;DHT22;2995;-31.998;115.906;2024-03-23T01:02:29;25.90;99.90
5940;DHT22;2995;-31.998;115.906;2024-03-23T01:05:00;26.70;99.90
5940;DHT22;2995;-31.998;115.906;2024-03-23T01:07:32;26.90;99.90
5940;DHT22;2995;-31.998;115.906;2024-03-23T01:10:04;27.40;99.90
5940;DHT22;2995;-31.998;115.906;2024-03-23T01:12:34;27.10;99.90
5940;DHT22;2995;-31.998;115.906;2024-03-23T01:15:05;27.40;99.90
5940;DHT22;2995;-31.998;115.906;2024-03-23T01:17:35;25.20;99.90
5940;DHT22;2995;-31.998;115.906;2024-03-23T01:20:07;26.40;99.90
5940;DHT22;2995;-31.998;115.906;2024-03-23T01:22:39;23.90;99.90
5940;DHT22;2995;-31.998;115.906;2024-03-23T01:25:10;24.30;99.90
5940;DHT22;2995;-31.998;115.906;2024-03-23T01:27:40;24.20;99.90
5940;DHT22;2995;-31.998;115.906;2024-03-23T01:30:12;23.50;99.90
5940;DHT22;2995;-31.998;115.906;2024-03-23T01:32:44;23.90;99.90
5940;DHT22;2995;-31.998;115.906;2024-03-23T01:35:15;23.60;99.90
5940;DHT22;2995;-31.998;115.906;2024-03-23T01:37:47;23.70;99.90
5940;DHT22;2995;-31.998;115.906;2024-03-23T01:40:19;23.50;99.90
5940;DHT22;2995;-31.998;115.906;2024-03-23T01:42:57;23.90;99.90
5940;DHT22;2995;-31.998;115.906;2024-03-23T01:45:28;23.30;99.90
5940;DHT22;2995;-31.998;115.906;2024-03-23T01:47:59;23.00;99.90
5940;DHT22;2995;-31.998;115.906;2024-03-23T01:50:31;23.40;99.90
5940;DHT22;2995;-31.998;115.906;2024-03-23T01:53:06;23.30;99.90
5940;DHT22;2995;-31.998;115.906;2024-03-23T01:55:36;23.70;99.90
5940;DHT22;2995;-31.998;115.906;2024-03-23T01:58:08;23.70;99.90
5940;DHT22;2995;-31.998;115.906;2024-03-23T02:00:38;23.90;99.90
5940;DHT22;2995;-31.998;115.906;2024-03-23T02:03:24;23.80;99.90
5940;DHT22;2995;-31.998;115.906;2024-03-23T02:05:54;23.80;99.90
5940;DHT22;2995;-31.998;115.906;2024-03-23T02:08:29;23.60;99.90
5940;DHT22;2995;-31.998;115.906;2024-03-23T02:10:59;23.70;99.90
5940;DHT22;2995;-31.998;115.906;2024-03-23T02:13:31;23.30;99.90
5940;DHT22;2995;-31.998;115.906;2024-03-23T02:16:00;23.00;99.90
5940;DHT22;2995;-31.998;115.906;2024-03-23T02:18:32;23.10;99.90
5940;DHT22;2995;-31.998;115.906;2024-03-23T02:21:02;23.50;99.90
5940;DHT22;2995;-31.998;115.906;2024-03-23T02:23:35;23.20;99.90
5940;DHT22;2995;-31.998;115.906;2024-03-23T02:26:05;23.10;99.90
5940;DHT22;2995;-31.998;115.906;2024-03-23T02:28:36;23.10;99.90
5940;DHT22;2995;-31.998;115.906;2024-03-23T02:31:06;23.10;99.90
5940;DHT22;2995;-31.998;115.906;2024-03-23T02:33:37;23.30;99.90
5940;DHT22;2995;-31.998;115.906;2024-03-23T02:36:07;23.70;99.90
5940;DHT22;2995;-31.998;115.906;2024-03-23T02:38:41;23.30;99.90
5940;DHT22;2995;-31.998;115.906;2024-03-23T02:41:11;23.40;99.90
5940;DHT22;2995;-31.998;115.906;2024-03-23T02:43:43;23.50;99.90
5940;DHT22;2995;-31.998;115.906;2024-03-23T02:46:13;23.80;99.90
5940;DHT22;2995;-31.998;115.906;2024-03-23T02:48:44;23.90;99.90
5940;DHT22;2995;-31.998;115.906;2024-03-23T02:51:14;23.70;99.90
5940;DHT22;2995;-31.998;115.906;2024-03-23T02:53:48;23.90;99.90
5940;DHT22;2995;-31.998;115.906;2024-03-23T02:56:17;24.10;99.90
5940;DHT22;2995;-31.998;115.906;2024-03-23T02:58:50;24.00;99.90
5940;DHT22;2995;-31.998;115.906;2024-03-23T03:01:19;24.40;99.90
5940;DHT22;2995;-31.998;115.906;2024-03-23T03:03:51;24.90;99.90
5940;DHT22;2995;-31.998;115.906;2024-03-23T03:06:27;24.10;99.90
5940;DHT22;2995;-31.998;115.906;2024-03-23T03:09:01;24.40;99.90
5940;DHT22;2995;-31.998;115.906;2024-03-23T03:11:30;24.80;99.90
5940;DHT22;2995;-31.998;115.906;2024-03-23T03:14:02;24.50;99.90
5940;DHT22;2995;-31.998;115.906;2024-03-23T03:16:31;24.60;99.90
5940;DHT22;2995;-31.998;115.906;2024-03-23T03:19:03;24.40;99.90
5940;DHT22;2995;-31.998;115.906;2024-03-23T03:21:34;24.70;99.90
5940;DHT22;2995;-31.998;115.906;2024-03-23T03:24:08;24.90;99.90
5940;DHT22;2995;-31.998;115.906;2024-03-23T03:26:38;25.00;99.90
5940;DHT22;2995;-31.998;115.906;2024-03-23T03:29:09;24.90;99.90
5940;DHT22;2995;-31.998;115.906;2024-03-23T03:31:40;25.20;99.90
5940;DHT22;2995;-31.998;115.906;2024-03-23T03:34:11;25.00;99.90
5940;DHT22;2995;-31.998;115.906;2024-03-23T03:36:41;25.20;99.90
5940;DHT22;2995;-31.998;115.906;2024-03-23T03:39:14;25.10;99.90
5940;DHT22;2995;-31.998;115.906;2024-03-23T03:41:44;25.00;99.90
5940;DHT22;2995;-31.998;115.906;2024-03-23T03:44:16;25.20;99.90
5940;DHT22;2995;-31.998;115.906;2024-03-23T03:46:45;25.40;99.90
5940;DHT22;2995;-31.998;115.906;2024-03-23T03:49:17;25.20;99.90
5940;DHT22;2995;-31.998;115.906;2024-03-23T03:51:46;25.20;99.90
5940;DHT22;2995;-31.998;115.906;2024-03-23T03:54:20;25.60;99.90
5940;DHT22;2995;-31.998;115.906;2024-03-23T03:56:50;25.40;99.90
5940;DHT22;2995;-31.998;115.906;2024-03-23T03:59:21;25.80;99.90
5940;DHT22;2995;-31.998;115.906;2024-03-23T04:01:51;25.30;99.90
5940;DHT22;2995;-31.998;115.906;2024-03-23T04:04:22;25.60;99.90
5940;DHT22;2995;-31.998;115.906;2024-03-23T04:06:59;25.50;99.90
5940;DHT22;2995;-31.998;115.906;2024-03-23T04:09:33;25.90;99.90
5940;DHT22;2995;-31.998;115.906;2024-03-23T04:12:03;25.90;99.90
5940;DHT22;2995;-31.998;115.906;2024-03-23T04:14:35;25.80;99.90
5940;DHT22;2995;-31.998;115.906;2024-03-23T04:17:05;25.40;99.90
5940;DHT22;2995;-31.998;115.906;2024-03-23T04:19:36;25.80;99.90
5940;DHT22;2995;-31.998;115.906;2024-03-23T04:22:06;25.90;99.90
5940;DHT22;2995;-31.998;115.906;2024-03-23T04:24:39;26.10;99.90
5940;DHT22;2995;-31.998;115.906;2024-03-23T04:27:09;26.10;99.90
5940;DHT22;2995;-31.998;115.906;2024-03-23T04:29:41;26.20;99.90
5940;DHT22;2995;-31.998;115.906;2024-03-23T04:32:11;25.90;99.90
5940;DHT22;2995;-31.998;115.906;2024-03-23T04:34:42;26.00;99.90
5940;DHT22;2995;-31.998;115.906;2024-03-23T04:37:12;26.30;99.90
5940;DHT22;2995;-31.998;115.906;2024-03-23T04:39:47;26.60;99.90
5940;DHT22;2995;-31.998;115.906;2024-03-23T04:42:19;26.90;99.90
5940;DHT22;2995;-31.998;115.906;2024-03-23T04:44:50;26.90;99.90
5940;DHT22;2995;-31.998;115.906;2024-03-23T04:47:22;27.00;99.90
5940;DHT22;2995;-31.998;115.906;2024-03-23T04:49:53;27.30;99.90
5940;DHT22;2995;-31.998;115.906;2024-03-23T04:52:25;27.00;99.90
5940;DHT22;2995;-31.998;115.906;2024-03-23T04:54:59;26.80;99.90
5940;DHT22;2995;-31.998;115.906;2024-03-23T04:57:30;27.00;99.90
5940;DHT22;2995;-31.998;115.906;2024-03-23T05:00:01;26.50;99.90
5940;DHT22;2995;-31.998;115.906;2024-03-23T05:02:40;26.80;99.90
5940;DHT22;2995;-31.998;115.906;2024-03-23T05:05:12;26.90;99.90
5940;DHT22;2995;-31.998;115.906;2024-03-23T05:07:42;27.00;99.90
5940;DHT22;2995;-31.998;115.906;2024-03-23T05:10:15;26.90;99.90
5940;DHT22;2995;-31.998;115.906;2024-03-23T05:12:45;26.80;99.90
5940;DHT22;2995;-31.998;115.906;2024-03-23T05:15:17;26.60;99.90
5940;DHT22;2995;-31.998;115.906;2024-03-23T05:17:46;26.90;99.80
5940;DHT22;2995;-31.998;115.906;2024-03-23T05:20:18;27.20;99.80
5940;DHT22;2995;-31.998;115.906;2024-03-23T05:22:48;27.10;99.20
5940;DHT22;2995;-31.998;115.906;2024-03-23T05:25:23;26.90;99.20
5940;DHT22;2995;-31.998;115.906;2024-03-23T05:27:53;27.30;99.90
5940;DHT22;2995;-31.998;115.906;2024-03-23T05:30:25;27.30;99.50
5940;DHT22;2995;-31.998;115.906;2024-03-23T05:32:55;27.00;99.60
5940;DHT22;2995;-31.998;115.906;2024-03-23T05:35:26;27.00;99.50
5940;DHT22;2995;-31.998;115.906;2024-03-23T05:37:56;27.10;99.10
5940;DHT22;2995;-31.998;115.906;2024-03-23T05:40:30;27.50;98.90
5940;DHT22;2995;-31.998;115.906;2024-03-23T05:42:59;27.50;99.20
5940;DHT22;2995;-31.998;115.906;2024-03-23T05:45:31;27.50;98.90
5940;DHT22;2995;-31.998;115.906;2024-03-23T05:48:01;27.50;98.70
5940;DHT22;2995;-31.998;115.906;2024-03-23T05:50:33;27.30;98.40
5940;DHT22;2995;-31.998;115.906;2024-03-23T05:53:02;27.00;97.80
5940;DHT22;2995;-31.998;115.906;2024-03-23T05:55:36;27.10;98.20
5940;DHT22;2995;-31.998;115.906;2024-03-23T05:58:06;26.90;98.70
5940;DHT22;2995;-31.998;115.906;2024-03-23T06:00:38;27.00;98.20
5940;DHT22;2995;-31.998;115.906;2024-03-23T06:03:07;27.30;98.50
5940;DHT22;2995;-31.998;115.906;2024-03-23T06:05:39;27.50;97.60
5940;DHT22;2995;-31.998;115.906;2024-03-23T06:08:10;27.40;98.00
5940;DHT22;2995;-31.998;115.906;2024-03-23T06:10:45;27.10;97.70
5940;DHT22;2995;-31.998;115.906;2024-03-23T06:13:15;27.20;98.00
5940;DHT22;2995;-31.998;115.906;2024-03-23T06:15:47;27.30;97.90
5940;DHT22;2995;-31.998;115.906;2024-03-23T06:18:17;27.60;97.20
5940;DHT22;2995;-31.998;115.906;2024-03-23T06:20:48;27.40;97.50
5940;DHT22;2995;-31.998;115.906;2024-03-23T06:23:18;27.40;97.70
5940;DHT22;2995;-31.998;115.906;2024-03-23T06:25:52;27.50;97.40
5940;DHT22;2995;-31.998;115.906;2024-03-23T06:28:22;27.40;97.60
5940;DHT22;2995;-31.998;115.906;2024-03-23T06:30:53;27.50;97.20
5940;DHT22;2995;-31.998;115.906;2024-03-23T06:33:23;27.50;97.20
5940;DHT22;2995;-31.998;115.906;2024-03-23T06:35:54;27.40;97.30
5940;DHT22;2995;-31.998;115.906;2024-03-23T06:38:24;27.50;97.50
5940;DHT22;2995;-31.998;115.906;2024-03-23T06:40:58;27.20;97.60
5940;DHT22;2995;-31.998;115.906;2024-03-23T06:43:27;27.40;98.10
5940;DHT22;2995;-31.998;115.906;2024-03-23T06:45:59;27.10;97.60
5940;DHT22;2995;-31.998;115.906;2024-03-23T06:48:28;27.30;98.20
5940;DHT22;2995;-31.998;115.906;2024-03-23T06:51:00;27.50;97.50
5940;DHT22;2995;-31.998;115.906;2024-03-23T06:53:29;27.90;98.00
5940;DHT22;2995;-31.998;115.906;2024-03-23T06:56:03;27.40;97.60
5940;DHT22;2995;-31.998;115.906;2024-03-23T06:58:33;27.20;97.60
5940;DHT22;2995;-31.998;115.906;2024-03-23T07:01:05;27.70;97.30
5940;DHT22;2995;-31.998;115.906;2024-03-23T07:03:35;27.60;97.40
5940;DHT22;2995;-31.998;115.906;2024-03-23T07:06:06;27.60;97.60
5940;DHT22;2995;-31.998;115.906;2024-03-23T07:08:36;27.70;97.60
5940;DHT22;2995;-31.998;115.906;2024-03-23T07:11:09;27.80;96.90
5940;DHT22;2995;-31.998;115.906;2024-03-23T07:13:39;28.00;96.90
5940;DHT22;2995;-31.998;115.906;2024-03-23T07:16:10;27.90;96.80
5940;DHT22;2995;-31.998;115.906;2024-03-23T07:18:41;27.90;97.40
5940;DHT22;2995;-31.998;115.906;2024-03-23T07:21:12;27.70;97.20
5940;DHT22;2995;-31.998;115.906;2024-03-23T07:23:44;27.70;97.00
5940;DHT22;2995;-31.998;115.906;2024-03-23T07:26:18;27.80;96.90
5940;DHT22;2995;-31.998;115.906;2024-03-23T07:28:49;27.60;96.50
5940;DHT22;2995;-31.998;115.906;2024-03-23T07:31:20;27.80;96.50
5940;DHT22;2995;-31.998;115.906;2024-03-23T07:33:51;27.90;96.10
5940;DHT22;2995;-31.998;115.906;2024-03-23T07:36:22;27.60;97.40
5940;DHT22;2995;-31.998;115.906;2024-03-23T07:38:52;27.80;97.00
5940;DHT22;2995;-31.998;115.906;2024-03-23T07:41:28;27.70;97.60
5940;DHT22;2995;-31.998;115.906;2024-03-23T07:43:58;27.70;97.20
5940;DHT22;2995;-31.998;115.906;2024-03-23T07:46:30;27.80;96.70
5940;DHT22;2995;-31.998;115.906;2024-03-23T07:48:59;27.90;95.70
5940;DHT22;2995;-31.998;115.906;2024-03-23T07:51:31;27.40;96.20
5940;DHT22;2995;-31.998;115.906;2024-03-23T07:54:02;27.40;96.20
5940;DHT22;2995;-31.998;115.906;2024-03-23T07:56:35;27.60;96.40
5940;DHT22;2995;-31.998;115.906;2024-03-23T07:59:05;27.80;95.90
5940;DHT22;2995;-31.998;115.906;2024-03-23T08:01:38;27.80;95.40
5940;DHT22;2995;-31.998;115.906;2024-03-23T08:04:08;27.70;95.70
5940;DHT22;2995;-31.998;115.906;2024-03-23T08:06:39;27.70;95.80
5940;DHT22;2995;-31.998;115.906;2024-03-23T08:09:09;27.50;95.30
5940;DHT22;2995;-31.998;115.906;2024-03-23T08:11:43;27.60;95.10
5940;DHT22;2995;-31.998;115.906;2024-03-23T08:14:14;27.50;94.30
5940;DHT22;2995;-31.998;115.906;2024-03-23T08:16:47;27.50;94.30
5940;DHT22;2995;-31.998;115.906;2024-03-23T08:19:18;27.50;94.50
5940;DHT22;2995;-31.998;115.906;2024-03-23T08:21:49;27.40;94.80
5940;DHT22;2995;-31.998;115.906;2024-03-23T08:24:19;27.30;94.90
5940;DHT22;2995;-31.998;115.906;2024-03-23T08:26:54;27.40;95.00
5940;DHT22;2995;-31.998;115.906;2024-03-23T08:29:24;27.50;95.20
5940;DHT22;2995;-31.998;115.906;2024-03-23T08:31:55;27.50;95.40
5940;DHT22;2995;-31.998;115.906;2024-03-23T08:34:25;27.60;95.20
5940;DHT22;2995;-31.998;115.906;2024-03-23T08:36:57;27.50;95.10
5940;DHT22;2995;-31.998;115.906;2024-03-23T08:39:26;27.30;95.20
5940;DHT22;2995;-31.998;115.906;2024-03-23T08:42:00;27.50;95.30
5940;DHT22;2995;-31.998;115.906;2024-03-23T08:44:30;27.40;94.80
5940;DHT22;2995;-31.998;115.906;2024-03-23T08:47:02;27.40;95.00
5940;DHT22;2995;-31.998;115.906;2024-03-23T08:49:32;27.30;95.10
5940;DHT22;2995;-31.998;115.906;2024-03-23T08:52:03;27.40;94.80
5940;DHT22;2995;-31.998;115.906;2024-03-23T08:54:33;27.30;94.90
5940;DHT22;2995;-31.998;115.906;2024-03-23T08:57:07;27.30;95.10
5940;DHT22;2995;-31.998;115.906;2024-03-23T08:59:41;27.20;94.80
5940;DHT22;2995;-31.998;115.906;2024-03-23T09:02:12;27.10;94.40
5940;DHT22;2995;-31.998;115.906;2024-03-23T09:04:42;27.10;94.60
5940;DHT22;2995;-31.998;115.906;2024-03-23T09:07:15;27.20;94.40
5940;DHT22;2995;-31.998;115.906;2024-03-23T09:09:45;27.00;95.00
5940;DHT22;2995;-31.998;115.906;2024-03-23T09:12:18;27.00;94.90
5940;DHT22;2995;-31.998;115.906;2024-03-23T09:14:48;26.90;94.70
5940;DHT22;2995;-31.998;115.906;2024-03-23T09:17:20;26.90;94.60
5940;DHT22;2995;-31.998;115.906;2024-03-23T09:19:50;26.90;94.60
5940;DHT22;2995;-31.998;115.906;2024-03-23T09:22:21;26.90;94.60
5940;DHT22;2995;-31.998;115.906;2024-03-23T09:24:51;26.80;94.50
5940;DHT22;2995;-31.998;115.906;2024-03-23T09:27:24;26.80;94.90
5940;DHT22;2995;-31.998;115.906;2024-03-23T09:29:54;26.70;95.00
5940;DHT22;2995;-31.998;115.906;2024-03-23T09:32:25;26.60;95.10
5940;DHT22;2995;-31.998;115.906;2024-03-23T09:34:55;26.70;95.30
5940;DHT22;2995;-31.998;115.906;2024-03-23T09:37:26;26.60;95.30
5940;DHT22;2995;-31.998;115.906;2024-03-23T09:39:56;26.60;95.20
5940;DHT22;2995;-31.998;115.906;2024-03-23T09:42:29;26.50;94.80
5940;DHT22;2995;-31.998;115.906;2024-03-23T09:44:59;26.50;95.00
5940;DHT22;2995;-31.998;115.906;2024-03-23T09:47:32;26.50;95.20
5940;DHT22;2995;-31.998;115.906;2024-03-23T09:50:02;26.40;94.90
5940;DHT22;2995;-31.998;115.906;2024-03-23T09:52:33;26.40;94.90
5940;DHT22;2995;-31.998;115.906;2024-03-23T09:55:05;26.30;94.70
5940;DHT22;2995;-31.998;115.906;2024-03-23T09:57:38;26.20;94.70
5940;DHT22;2995;-31.998;115.906;2024-03-23T10:00:09;26.10;94.90
5940;DHT22;2995;-31.998;115.906;2024-03-23T10:02:40;26.00;94.70
5940;DHT22;2995;-31.998;115.906;2024-03-23T10:05:21;26.00;94.80
5940;DHT22;2995;-31.998;115.906;2024-03-23T10:07:53;25.90;94.90
5940;DHT22;2995;-31.998;115.906;2024-03-23T10:10:23;25.90;94.80
5940;DHT22;2995;-31.998;115.906;2024-03-23T10:12:57;25.80;95.00
5940;DHT22;2995;-31.998;115.906;2024-03-23T10:15:27;25.80;95.00
5940;DHT22;2995;-31.998;115.906;2024-03-23T10:18:16;25.70;95.20
5940;DHT22;2995;-31.998;115.906;2024-03-23T10:20:50;25.60;95.70
5940;DHT22;2995;-31.998;115.906;2024-03-23T10:23:21;25.60;95.40
5940;DHT22;2995;-31.998;115.906;2024-03-23T10:25:52;25.60;95.60
5940;DHT22;2995;-31.998;115.906;2024-03-23T10:28:25;25.40;95.60
5940;DHT22;2995;-31.998;115.906;2024-03-23T10:30:55;25.40;95.90
5940;DHT22;2995;-31.998;115.906;2024-03-23T10:33:26;25.30;95.80
5940;DHT22;2995;-31.998;115.906;2024-03-23T10:35:56;25.30;96.10
5940;DHT22;2995;-31.998;115.906;2024-03-23T10:38:27;25.10;96.00
5940;DHT22;2995;-31.998;115.906;2024-03-23T10:41:00;25.10;96.00
5940;DHT22;2995;-31.998;115.906;2024-03-23T10:43:34;25.10;96.10
5940;DHT22;2995;-31.998;115.906;2024-03-23T10:46:05;25.10;96.30
5940;DHT22;2995;-31.998;115.906;2024-03-23T10:48:37;24.90;96.40
5940;DHT22;2995;-31.998;115.906;2024-03-23T10:51:08;24.80;96.50
5940;DHT22;2995;-31.998;115.906;2024-03-23T10:53:41;24.90;96.60
5940;DHT22;2995;-31.998;115.906;2024-03-23T10:56:12;24.90;96.20
5940;DHT22;2995;-31.998;115.906;2024-03-23T10:58:48;24.80;96.50
5940;DHT22;2995;-31.998;115.906;2024-03-23T11:01:19;24.80;96.10
5940;DHT22;2995;-31.998;115.906;2024-03-23T11:03:51;24.80;96.20
5940;DHT22;2995;-31.998;115.906;2024-03-23T11:06:39;24.70;96.10
5940;DHT22;2995;-31.998;115.906;2024-03-23T11:09:40;24.70;96.20
5940;DHT22;2995;-31.998;115.906;2024-03-23T11:12:30;24.80;96.00
5940;DHT22;2995;-31.998;115.906;2024-03-23T11:15:05;24.70;96.10
5940;DHT22;2995;-31.998;115.906;2024-03-23T11:17:36;24.50;96.30
5940;DHT22;2995;-31.998;115.906;2024-03-23T11:20:08;24.50;96.40
5940;DHT22;2995;-31.998;115.906;2024-03-23T11:22:47;24.30;96.30
5940;DHT22;2995;-31.998;115.906;2024-03-23T11:25:21;24.30;96.30
5940;DHT22;2995;-31.998;115.906;2024-03-23T11:27:52;24.40;96.10
5940;DHT22;2995;-31.998;115.906;2024-03-23T11:30:27;24.50;95.90
5940;DHT22;2995;-31.998;115.906;2024-03-23T11:32:58;24.50;95.90
5940;DHT22;2995;-31.998;115.906;2024-03-23T11:35:31;24.40;96.20
5940;DHT22;2995;-31.998;115.906;2024-03-23T11:38:06;24.30;96.20
5940;DHT22;2995;-31.998;115.906;2024-03-23T11:40:38;24.30;96.00
5940;DHT22;2995;-31.998;115.906;2024-03-23T11:43:08;24.10;96.20
5940;DHT22;2995;-31.998;115.906;2024-03-23T11:45:45;24.20;96.10
5940;DHT22;2995;-31.998;115.906;2024-03-23T11:48:17;24.10;96.10
5940;DHT22;2995;-31.998;115.906;2024-03-23T11:50:49;24.10;96.20
5940;DHT22;2995;-31.998;115.906;2024-03-23T11:53:20;24.00;96.30
5940;DHT22;2995;-31.998;115.906;2024-03-23T11:55:52;23.90;96.40
5940;DHT22;2995;-31.998;115.906;2024-03-23T11:58:23;23.90;96.60
5940;DHT22;2995;-31.998;115.906;2024-03-23T12:00:57;23.90;96.30
5940;DHT22;2995;-31.998;115.906;2024-03-23T12:03:28;23.80;96.70
5940;DHT22;2995;-31.998;115.906;2024-03-23T12:06:00;23.60;96.60
5940;DHT22;2995;-31.998;115.906;2024-03-23T12:08:31;23.50;96.70
5940;DHT22;2995;-31.998;115.906;2024-03-23T12:11:10;23.40;96.80
5940;DHT22;2995;-31.998;115.906;2024-03-23T12:13:41;23.60;96.70
5940;DHT22;2995;-31.998;115.906;2024-03-23T12:16:16;23.50;96.70
5940;DHT22;2995;-31.998;115.906;2024-03-23T12:18:46;23.50;96.90
5940;DHT22;2995;-31.998;115.906;2024-03-23T12:21:19;23.50;96.70
5940;DHT22;2995;-31.998;115.906;2024-03-23T12:23:50;23.60;96.90
5940;DHT22;2995;-31.998;115.906;2024-03-23T12:26:22;23.60;96.60
5940;DHT22;2995;-31.998;115.906;2024-03-23T12:28:51;23.50;97.20
5940;DHT22;2995;-31.998;115.906;2024-03-23T12:31:25;23.30;97.00
5940;DHT22;2995;-31.998;115.906;2024-03-23T12:33:55;23.10;97.20
5940;DHT22;2995;-31.998;115.906;2024-03-23T12:36:26;23.00;97.30
5940;DHT22;2995;-31.998;115.906;2024-03-23T12:38:56;23.00;97.20
5940;DHT22;2995;-31.998;115.906;2024-03-23T12:41:27;23.00;97.50
5940;DHT22;2995;-31.998;115.906;2024-03-23T12:43:57;23.00;97.50
5940;DHT22;2995;-31.998;115.906;2024-03-23T12:46:30;23.00;97.40
5940;DHT22;2995;-31.998;115.906;2024-03-23T12:49:00;23.10;97.10
5940;DHT22;2995;-31.998;115.906;2024-03-23T12:51:31;23.10;97.30
5940;DHT22;2995;-31.998;115.906;2024-03-23T12:54:01;23.10;97.30
5940;DHT22;2995;-31.998;115.906;2024-03-23T12:56:32;23.00;97.20
5940;DHT22;2995;-31.998;115.906;2024-03-23T12:59:02;23.00;97.30
5940;DHT22;2995;-31.998;115.906;2024-03-23T13:01:35;22.90;97.40
5940;DHT22;2995;-31.998;115.906;2024-03-23T13:04:05;22.90;97.70
5940;DHT22;2995;-31.998;115.906;2024-03-23T13:06:37;22.80;97.50
5940;DHT22;2995;-31.998;115.906;2024-03-23T13:09:07;22.80;97.40
5940;DHT22;2995;-31.998;115.906;2024-03-23T13:11:38;22.80;97.40
5940;DHT22;2995;-31.998;115.906;2024-03-23T13:14:08;22.70;97.60
5940;DHT22;2995;-31.998;115.906;2024-03-23T13:16:43;22.60;97.70
5940;DHT22;2995;-31.998;115.906;2024-03-23T13:19:14;22.60;97.70
5940;DHT22;2995;-31.998;115.906;2024-03-23T13:21:44;22.50;97.70
5940;DHT22;2995;-31.998;115.906;2024-03-23T13:24:16;22.50;97.80
5940;DHT22;2995;-31.998;115.906;2024-03-23T13:26:46;22.50;97.80
5940;DHT22;2995;-31.998;115.906;2024-03-23T13:29:17;22.50;97.90
5940;DHT22;2995;-31.998;115.906;2024-03-23T13:31:49;22.50;97.60
5940;DHT22;2995;-31.998;115.906;2024-03-23T13:34:21;22.50;97.70
5940;DHT22;2995;-31.998;115.906;2024-03-23T13:36:51;22.60;97.70
5940;DHT22;2995;-31.998;115.906;2024-03-23T13:39:22;22.50;97.90
5940;DHT22;2995;-31.998;115.906;2024-03-23T13:41:52;22.30;98.10
5940;DHT22;2995;-31.998;115.906;2024-03-23T13:44:23;22.30;97.70
5940;DHT22;2995;-31.998;115.906;2024-03-23T13:46:55;22.40;97.90
5940;DHT22;2995;-31.998;115.906;2024-03-23T13:49:30;22.50;97.70
5940;DHT22;2995;-31.998;115.906;2024-03-23T13:52:01;22.60;97.70
5940;DHT22;2995;-31.998;115.906;2024-03-23T13:54:32;22.60;97.60
5940;DHT22;2995;-31.998;115.906;2024-03-23T13:57:02;22.50;97.70
5940;DHT22;2995;-31.998;115.906;2024-03-23T13:59:38;22.40;97.70
5940;DHT22;2995;-31.998;115.906;2024-03-23T14:02:09;22.50;97.80
5940;DHT22;2995;-31.998;115.906;2024-03-23T14:04:42;22.50;97.70
5940;DHT22;2995;-31.998;115.906;2024-03-23T14:07:12;22.40;97.70
5940;DHT22;2995;-31.998;115.906;2024-03-23T14:09:45;22.50;97.70
5940;DHT22;2995;-31.998;115.906;2024-03-23T14:12:15;22.50;97.70
5940;DHT22;2995;-31.998;115.906;2024-03-23T14:14:46;22.50;97.40
5940;DHT22;2995;-31.998;115.906;2024-03-23T14:17:18;22.50;97.50
5940;DHT22;2995;-31.998;115.906;2024-03-23T14:19:49;22.50;97.50
5940;DHT22;2995;-31.998;115.906;2024-03-23T14:22:19;22.50;97.50
5940;DHT22;2995;-31.998;115.906;2024-03-23T14:24:51;22.60;97.30
5940;DHT22;2995;-31.998;115.906;2024-03-23T14:27:21;22.50;97.40
5940;DHT22;2995;-31.998;115.906;2024-03-23T14:29:52;22.50;97.50
5940;DHT22;2995;-31.998;115.906;2024-03-23T14:32:23;22.40;97.50
5940;DHT22;2995;-31.998;115.906;2024-03-23T14:34:55;22.30;97.50
5940;DHT22;2995;-31.998;115.906;2024-03-23T14:37:24;22.30;97.50
5940;DHT22;2995;-31.998;115.906;2024-03-23T14:39:57;22.30;97.40
5940;DHT22;2995;-31.998;115.906;2024-03-23T14:42:27;22.30;97.40
5940;DHT22;2995;-31.998;115.906;2024-03-23T14:44:59;22.20;97.40
5940;DHT22;2995;-31.998;115.906;2024-03-23T14:47:31;22.20;97.60
5940;DHT22;2995;-31.998;115.906;2024-03-23T14:50:02;22.20;97.80
5940;DHT22;2995;-31.998;115.906;2024-03-23T14:52:32;22.10;98.00
5940;DHT22;2995;-31.998;115.906;2024-03-23T14:55:03;22.00;98.30
5940;DHT22;2995;-31.998;115.906;2024-03-23T14:57:33;21.90;98.30
5940;DHT22;2995;-31.998;115.906;2024-03-23T15:00:06;21.90;98.50
5940;DHT22;2995;-31.998;115.906;2024-03-23T15:02:38;21.90;98.70
5940;DHT22;2995;-31.998;115.906;2024-03-23T15:05:09;21.80;99.00
5940;DHT22;2995;-31.998;115.906;2024-03-23T15:07:39;21.70;99.20
5940;DHT22;2995;-31.998;115.906;2024-03-23T15:10:11;21.70;99.40
5940;DHT22;2995;-31.998;115.906;2024-03-23T15:12:41;21.60;99.50
5940;DHT22;2995;-31.998;115.906;2024-03-23T15:15:12;21.60;99.80
5940;DHT22;2995;-31.998;115.906;2024-03-23T15:17:45;21.60;99.90
5940;DHT22;2995;-31.998;115.906;2024-03-23T15:20:17;21.50;99.90
5940;DHT22;2995;-31.998;115.906;2024-03-23T15:22:47;21.50;99.90
5940;DHT22;2995;-31.998;115.906;2024-03-23T15:25:18;21.40;99.90
5940;DHT22;2995;-31.998;115.906;2024-03-23T15:27:51;21.40;99.90
5940;DHT22;2995;-31.998;115.906;2024-03-23T15:30:23;21.30;99.90
5940;DHT22;2995;-31.998;115.906;2024-03-23T15:32:54;21.20;99.90
5940;DHT22;2995;-31.998;115.906;2024-03-23T15:35:26;21.10;99.90
5940;DHT22;2995;-31.998;115.906;2024-03-23T15:37:55;21.10;99.90
5940;DHT22;2995;-31.998;115.906;2024-03-23T15:40:27;21.00;99.90
5940;DHT22;2995;-31.998;115.906;2024-03-23T15:42:56;20.90;99.90
5940;DHT22;2995;-31.998;115.906;2024-03-23T15:45:28;20.90;99.90
5940;DHT22;2995;-31.998;115.906;2024-03-23T15:48:00;20.80;99.90
5940;DHT22;2995;-31.998;115.906;2024-03-23T15:50:31;20.80;99.90
5940;DHT22;2995;-31.998;115.906;2024-03-23T15:53:01;20.80;99.90
5940;DHT22;2995;-31.998;115.906;2024-03-23T15:55:33;20.60;99.90
5940;DHT22;2995;-31.998;115.906;2024-03-23T15:58:04;20.60;99.90
5940;DHT22;2995;-31.998;115.906;2024-03-23T16:00:35;20.50;99.90
5940;DHT22;2995;-31.998;115.906;2024-03-23T16:03:07;20.60;99.90
5940;DHT22;2995;-31.998;115.906;2024-03-23T16:05:38;20.40;99.90
5940;DHT22;2995;-31.998;115.906;2024-03-23T16:08:08;20.40;99.90
5940;DHT22;2995;-31.998;115.906;2024-03-23T16:10:42;20.50;99.90
5940;DHT22;2995;-31.998;115.906;2024-03-23T16:13:11;20.30;99.90
5940;DHT22;2995;-31.998;115.906;2024-03-23T16:15:43;20.20;99.90
5940;DHT22;2995;-31.998;115.906;2024-03-23T16:18:16;20.10;99.90
5940;DHT22;2995;-31.998;115.906;2024-03-23T16:20:54;20.00;99.90
5940;DHT22;2995;-31.998;115.906;2024-03-23T16:23:24;20.00;99.90
5940;DHT22;2995;-31.998;115.906;2024-03-23T16:25:56;20.00;99.90
5940;DHT22;2995;-31.998;115.906;2024-03-23T16:28:26;19.90;99.90
5940;DHT22;2995;-31.998;115.906;2024-03-23T16:30:58;19.80;99.90
5940;DHT22;2995;-31.998;115.906;2024-03-23T16:33:33;19.80;99.90